PST,Max TemperatureF,Mean TemperatureF,Min TemperatureF,Max Dew PointF,MeanDew PointF,Min DewpointF,Max Humidity, Mean Humidity, Min Humidity, Max Sea Level PressureIn, Mean Sea Level PressureIn, Min Sea Level PressureIn, Max VisibilityMiles, Mean VisibilityMiles, Min VisibilityMiles, Max Wind SpeedMPH, Mean Wind SpeedMPH, Max Gust SpeedMPH,PrecipitationIn, CloudCover, Events, WindDirDegrees
2012-12-1,48,40,31,41,37,31,89,80,70,29.86,29.75,29.52,10,10,7,25,6,32,0.06,7,Rain,106
2012-12-2,49,39,28,42,32,24,92,69,45,30.07,29.64,29.34,10,9,6,28,14,38,0.33,5,Rain,202
2012-12-3,44,37,29,33,28,26,92,73,53,30.21,30.14,30.04,10,10,10,21,5,26,0.02,4,Rain,102
2012-12-4,49,43,36,43,38,33,96,84,71,30.07,30.02,29.97,10,10,7,15,7,20,0.18,8,Rain,141
2012-12-5,51,41,30,41,35,27,96,73,50,30.14,30.07,29.99,10,10,9,21,9,26,0.06,5,Rain,230
2012-12-6,41,32,23,30,26,21,100,77,54,30.22,30.15,30.09,10,10,10,15,6,20,0.00,4,,246
2012-12-7,37,29,20,26,22,17,92,73,54,30.23,30.15,30.08,10,10,10,16,5,21,0.00,3,,195
2012-12-8,35,31,27,25,22,18,78,63,47,30.25,30.16,30.07,10,10,10,17,8,22,0.00,7,,242
2012-12-9,36,33,29,29,27,24,85,75,64,30.43,30.34,30.22,10,10,5,13,3,15,T,8,Snow,202
2012-12-10,52,40,28,34,28,25,92,64,35,30.34,30.26,30.15,10,10,10,20,8,24,0.00,0,,251
2012-12-11,43,33,22,32,28,20,96,75,53,30.12,29.81,29.61,10,9,2,18,3,23,0.03,4,Snow,195
2012-12-12,36,30,23,30,27,21,100,85,70,29.92,29.77,29.60,10,9,0,12,5,14,T,7,Fog,259
2012-12-13,38,28,18,25,20,16,96,72,48,30.01,29.93,29.86,10,10,10,12,4,14,0.00,3,,271
2012-12-14,30,23,15,27,20,12,100,89,78,29.98,29.83,29.73,10,5,0,7,1,8,T,6,Fog-Snow,346
2012-12-15,29,24,18,27,22,16,92,85,78,29.99,29.81,29.70,10,4,0,8,2,9,0.18,7,Fog-Snow,125
2012-12-16,38,32,26,31,28,24,92,84,75,29.90,29.76,29.45,10,4,0,23,7,30,0.25,8,Fog-Snow,136
2012-12-17,38,19,0,34,20,-2,92,76,59,30.05,29.75,29.46,10,10,10,39,16,46,T,2,,222
2012-12-18,26,9,-9,15,-1,-13,91,77,62,30.23,30.07,29.90,10,9,1,9,3,12,0.00,2,,254
2012-12-19,26,9,-9,17,1,-13,92,77,62,30.35,30.17,30.01,10,7,0,12,5,18,0.00,6,Fog,41
2012-12-20,39,31,22,24,20,14,74,63,52,30.10,29.95,29.87,10,10,10,22,11,30,0.00,6,,100
2012-12-21,38,35,31,31,27,22,92,74,56,29.90,29.85,29.78,10,9,2,15,7,20,0.01,8,Snow,86
2012-12-22,38,28,17,32,25,16,89,77,64,29.94,29.76,29.65,10,8,1,28,9,35,0.04,5,Snow,132
2012-12-23,37,27,16,30,24,14,92,84,75,29.99,29.82,29.58,10,7,0,22,10,30,0.19,6,Fog-Snow,88
2012-12-24,33,18,2,21,13,0,92,74,56,30.34,30.14,29.88,10,10,10,15,6,20,0.00,2,,232
2012-12-25,27,15,2,23,19,0,95,88,81,30.25,29.92,29.73,10,4,0,14,5,16,0.29,7,Fog-Snow,48
2012-12-26,28,18,8,25,20,5,92,88,84,30.02,29.79,29.67,10,4,0,10,3,13,0.07,8,Fog-Snow,115
2012-12-27,26,13,0,21,6,-4,95,84,73,30.33,30.10,29.89,10,5,0,9,3,12,T,5,Fog-Snow,16
2012-12-28,17,7,-3,10,0,-6,96,86,75,30.33,30.23,30.13,10,6,0,7,2,8,0.00,5,Fog,263
2012-12-29,23,14,5,18,14,6,92,86,80,30.27,30.10,29.98,10,6,0,7,1,7,0.02,8,Fog-Snow,186
2012-12-30,18,8,-3,13,8,-6,95,88,80,30.38,30.26,30.04,10,5,0,6,1,7,T,8,Fog-Snow,270
2012-12-31,18,13,7,14,11,6,96,88,80,30.47,30.38,30.19,10,10,10,9,3,13,0.00,7,,252